Impacts TAF Board
For situational awareness. Not to be used for flight planning purposes.
IDs:

KBBD - Brady/Curtis Fld, TX, US

Issued at 2331 UTC 05 Dec 2019
Updated at 0139 UTC 06 Dec 2019
Potential Impact None Slight Moderate High
Time<<07/02Z 07/03Z 07/04Z 07/05Z 07/06Z 07/07Z 07/08Z 07/09Z 07/10Z 07/11Z 07/12Z 07/13Z 07/14Z
Type
VIS
CIG
Cover
FltCat
WX
WDir
WSpd
WGst
Raw TAF
KBBD 052331Z 0600/0624 23007KT P6SM SCT250
  FM060900 33011KT P6SM SKC
  FM061500 34015KT P6SM SKC


METAR Board
Radar Display
Forecast Discussion
For situational awareness. Not to be used for flight planning purposes.